sensor_id;sensor_type;location;lat;lon;timestamp;P1;durP1;ratioP1;P2;durP2;ratioP2
18973;SDS011;9621;48.690;9.466;2024-03-23T00:53:27;10.82;;;6.20;;
18973;SDS011;9621;48.690;9.466;2024-03-23T00:55:54;11.35;;;7.50;;
18973;SDS011;9621;48.690;9.466;2024-03-23T00:58:20;13.30;;;6.57;;
18973;SDS011;9621;48.690;9.466;2024-03-23T01:00:47;13.10;;;7.43;;
18973;SDS011;9621;48.690;9.466;2024-03-23T01:03:13;10.18;;;6.88;;
18973;SDS011;9621;48.690;9.466;2024-03-23T01:05:40;11.25;;;7.63;;
18973;SDS011;9621;48.690;9.466;2024-03-23T01:08:06;13.07;;;6.87;;
18973;SDS011;9621;48.690;9.466;2024-03-23T01:10:34;14.13;;;7.00;;
18973;SDS011;9621;48.690;9.466;2024-03-23T01:13:00;13.98;;;7.15;;
18973;SDS011;9621;48.690;9.466;2024-03-23T01:15:27;11.48;;;7.07;;
18973;SDS011;9621;48.690;9.466;2024-03-23T01:17:53;14.57;;;7.60;;
18973;SDS011;9621;48.690;9.466;2024-03-23T01:20:20;16.53;;;8.70;;
18973;SDS011;9621;48.690;9.466;2024-03-23T01:22:46;16.70;;;9.27;;
18973;SDS011;9621;48.690;9.466;2024-03-23T01:25:12;16.77;;;8.33;;
18973;SDS011;9621;48.690;9.466;2024-03-23T01:27:40;10.97;;;7.70;;
18973;SDS011;9621;48.690;9.466;2024-03-23T01:30:07;10.10;;;6.80;;
18973;SDS011;9621;48.690;9.466;2024-03-23T01:32:33;9.53;;;7.10;;
18973;SDS011;9621;48.690;9.466;2024-03-23T01:35:00;16.33;;;7.33;;
18973;SDS011;9621;48.690;9.466;2024-03-23T01:37:26;12.60;;;7.77;;
18973;SDS011;9621;48.690;9.466;2024-03-23T01:39:53;14.00;;;7.70;;
18973;SDS011;9621;48.690;9.466;2024-03-23T01:42:19;15.73;;;8.67;;
18973;SDS011;9621;48.690;9.466;2024-03-23T01:44:47;11.43;;;8.03;;
18973;SDS011;9621;48.690;9.466;2024-03-23T01:47:13;14.00;;;7.97;;
18973;SDS011;9621;48.690;9.466;2024-03-23T01:49:40;12.97;;;8.47;;
18973;SDS011;9621;48.690;9.466;2024-03-23T01:52:06;13.87;;;8.37;;
18973;SDS011;9621;48.690;9.466;2024-03-23T01:54:33;12.27;;;7.50;;
18973;SDS011;9621;48.690;9.466;2024-03-23T01:57:00;11.05;;;7.47;;
18973;SDS011;9621;48.690;9.466;2024-03-23T01:59:27;11.03;;;7.47;;
18973;SDS011;9621;48.690;9.466;2024-03-23T02:01:54;10.40;;;7.60;;
18973;SDS011;9621;48.690;9.466;2024-03-23T02:04:21;10.65;;;7.57;;
18973;SDS011;9621;48.690;9.466;2024-03-23T02:06:47;10.13;;;7.82;;
18973;SDS011;9621;48.690;9.466;2024-03-23T02:09:14;12.23;;;7.77;;
18973;SDS011;9621;48.690;9.466;2024-03-23T02:11:40;10.80;;;8.27;;
18973;SDS011;9621;48.690;9.466;2024-03-23T02:14:07;12.70;;;7.68;;
18973;SDS011;9621;48.690;9.466;2024-03-23T02:16:33;11.40;;;8.13;;
18973;SDS011;9621;48.690;9.466;2024-03-23T02:19:01;12.80;;;9.00;;
18973;SDS011;9621;48.690;9.466;2024-03-23T02:21:27;11.60;;;8.67;;
18973;SDS011;9621;48.690;9.466;2024-03-23T02:23:58;11.87;;;8.20;;
18973;SDS011;9621;48.690;9.466;2024-03-23T02:26:24;11.53;;;7.60;;
18973;SDS011;9621;48.690;9.466;2024-03-23T02:28:51;11.83;;;8.17;;
18973;SDS011;9621;48.690;9.466;2024-03-23T02:31:17;14.20;;;8.63;;
18973;SDS011;9621;48.690;9.466;2024-03-23T02:33:43;13.10;;;8.03;;
18973;SDS011;9621;48.690;9.466;2024-03-23T02:36:09;11.07;;;8.32;;
18973;SDS011;9621;48.690;9.466;2024-03-23T02:38:36;13.18;;;8.38;;
18973;SDS011;9621;48.690;9.466;2024-03-23T02:41:04;13.37;;;8.37;;
18973;SDS011;9621;48.690;9.466;2024-03-23T02:43:31;14.15;;;8.45;;
18973;SDS011;9621;48.690;9.466;2024-03-23T02:45:57;11.70;;;8.07;;
18973;SDS011;9621;48.690;9.466;2024-03-23T02:48:23;11.98;;;8.38;;
18973;SDS011;9621;48.690;9.466;2024-03-23T02:50:49;13.30;;;8.13;;
18973;SDS011;9621;48.690;9.466;2024-03-23T02:53:16;13.63;;;8.07;;
18973;SDS011;9621;48.690;9.466;2024-03-23T02:55:42;14.10;;;8.18;;
18973;SDS011;9621;48.690;9.466;2024-03-23T02:58:10;15.43;;;8.57;;
18973;SDS011;9621;48.690;9.466;2024-03-23T03:00:36;14.60;;;8.55;;
18973;SDS011;9621;48.690;9.466;2024-03-23T03:03:04;11.27;;;7.95;;
18973;SDS011;9621;48.690;9.466;2024-03-23T03:05:30;11.93;;;8.43;;
18973;SDS011;9621;48.690;9.466;2024-03-23T03:07:56;15.57;;;8.93;;
18973;SDS011;9621;48.690;9.466;2024-03-23T03:10:22;17.27;;;9.10;;
18973;SDS011;9621;48.690;9.466;2024-03-23T03:12:49;13.90;;;8.60;;
18973;SDS011;9621;48.690;9.466;2024-03-23T03:15:16;13.63;;;8.47;;
18973;SDS011;9621;48.690;9.466;2024-03-23T03:17:43;12.13;;;8.73;;
18973;SDS011;9621;48.690;9.466;2024-03-23T03:20:10;18.27;;;9.85;;
18973;SDS011;9621;48.690;9.466;2024-03-23T03:22:38;14.40;;;9.00;;
18973;SDS011;9621;48.690;9.466;2024-03-23T03:25:05;12.97;;;8.10;;
18973;SDS011;9621;48.690;9.466;2024-03-23T03:27:32;14.60;;;8.15;;
18973;SDS011;9621;48.690;9.466;2024-03-23T03:29:59;11.65;;;7.85;;
18973;SDS011;9621;48.690;9.466;2024-03-23T03:32:29;10.37;;;6.87;;
18973;SDS011;9621;48.690;9.466;2024-03-23T03:34:55;12.68;;;8.48;;
18973;SDS011;9621;48.690;9.466;2024-03-23T03:37:21;12.77;;;7.97;;
18973;SDS011;9621;48.690;9.466;2024-03-23T03:39:47;12.23;;;8.40;;
18973;SDS011;9621;48.690;9.466;2024-03-23T03:42:14;12.65;;;8.27;;
18973;SDS011;9621;48.690;9.466;2024-03-23T03:44:40;13.25;;;8.82;;
18973;SDS011;9621;48.690;9.466;2024-03-23T03:47:07;13.90;;;9.13;;
18973;SDS011;9621;48.690;9.466;2024-03-23T03:49:34;12.90;;;9.10;;
18973;SDS011;9621;48.690;9.466;2024-03-23T03:52:01;12.80;;;8.47;;
18973;SDS011;9621;48.690;9.466;2024-03-23T03:54:31;12.63;;;8.07;;
18973;SDS011;9621;48.690;9.466;2024-03-23T03:56:59;17.65;;;8.50;;
18973;SDS011;9621;48.690;9.466;2024-03-23T03:59:24;11.63;;;8.60;;
18973;SDS011;9621;48.690;9.466;2024-03-23T04:01:52;16.53;;;8.90;;
18973;SDS011;9621;48.690;9.466;2024-03-23T04:04:18;13.07;;;9.83;;
18973;SDS011;9621;48.690;9.466;2024-03-23T04:06:47;14.53;;;8.27;;
18973;SDS011;9621;48.690;9.466;2024-03-23T04:09:12;11.77;;;7.67;;
18973;SDS011;9621;48.690;9.466;2024-03-23T04:11:40;13.90;;;8.63;;
18973;SDS011;9621;48.690;9.466;2024-03-23T04:14:06;17.30;;;9.20;;
18973;SDS011;9621;48.690;9.466;2024-03-23T04:16:33;16.50;;;9.03;;
18973;SDS011;9621;48.690;9.466;2024-03-23T04:19:00;11.50;;;8.77;;
18973;SDS011;9621;48.690;9.466;2024-03-23T04:21:27;11.38;;;8.70;;
18973;SDS011;9621;48.690;9.466;2024-03-23T04:23:55;14.50;;;9.00;;
18973;SDS011;9621;48.690;9.466;2024-03-23T04:26:22;12.73;;;8.50;;
18973;SDS011;9621;48.690;9.466;2024-03-23T04:28:47;12.57;;;8.52;;
18973;SDS011;9621;48.690;9.466;2024-03-23T04:31:14;12.53;;;8.63;;
18973;SDS011;9621;48.690;9.466;2024-03-23T04:33:40;11.03;;;8.33;;
18973;SDS011;9621;48.690;9.466;2024-03-23T04:36:07;16.03;;;8.67;;
18973;SDS011;9621;48.690;9.466;2024-03-23T04:38:34;15.63;;;8.85;;
18973;SDS011;9621;48.690;9.466;2024-03-23T04:41:02;14.15;;;8.60;;
18973;SDS011;9621;48.690;9.466;2024-03-23T04:43:29;12.63;;;9.20;;
18973;SDS011;9621;48.690;9.466;2024-03-23T04:45:57;12.52;;;8.60;;
18973;SDS011;9621;48.690;9.466;2024-03-23T04:48:23;13.80;;;9.55;;
18973;SDS011;9621;48.690;9.466;2024-03-23T04:50:54;12.93;;;9.20;;
18973;SDS011;9621;48.690;9.466;2024-03-23T04:53:22;14.82;;;9.70;;
18973;SDS011;9621;48.690;9.466;2024-03-23T04:55:53;15.70;;;9.23;;
18973;SDS011;9621;48.690;9.466;2024-03-23T04:58:21;18.43;;;10.20;;
18973;SDS011;9621;48.690;9.466;2024-03-23T05:00:48;16.73;;;9.80;;
18973;SDS011;9621;48.690;9.466;2024-03-23T05:03:19;18.95;;;10.82;;
18973;SDS011;9621;48.690;9.466;2024-03-23T05:05:46;17.67;;;9.52;;
18973;SDS011;9621;48.690;9.466;2024-03-23T05:08:13;14.48;;;9.90;;
18973;SDS011;9621;48.690;9.466;2024-03-23T05:10:39;15.98;;;9.52;;
18973;SDS011;9621;48.690;9.466;2024-03-23T05:13:07;12.65;;;8.65;;
18973;SDS011;9621;48.690;9.466;2024-03-23T05:15:34;12.75;;;7.60;;
18973;SDS011;9621;48.690;9.466;2024-03-23T05:18:01;18.98;;;9.48;;
18973;SDS011;9621;48.690;9.466;2024-03-23T05:20:28;14.85;;;7.53;;
18973;SDS011;9621;48.690;9.466;2024-03-23T05:22:54;13.20;;;6.45;;
18973;SDS011;9621;48.690;9.466;2024-03-23T05:25:21;11.38;;;7.53;;
18973;SDS011;9621;48.690;9.466;2024-03-23T05:27:47;12.70;;;8.07;;
18973;SDS011;9621;48.690;9.466;2024-03-23T05:30:14;13.35;;;8.00;;
18973;SDS011;9621;48.690;9.466;2024-03-23T05:32:42;12.27;;;8.25;;
18973;SDS011;9621;48.690;9.466;2024-03-23T05:35:09;14.02;;;8.65;;
18973;SDS011;9621;48.690;9.466;2024-03-23T05:37:35;16.63;;;9.73;;
18973;SDS011;9621;48.690;9.466;2024-03-23T05:40:03;17.48;;;10.70;;
18973;SDS011;9621;48.690;9.466;2024-03-23T05:42:29;17.17;;;9.45;;
18973;SDS011;9621;48.690;9.466;2024-03-23T05:44:56;16.80;;;9.05;;
18973;SDS011;9621;48.690;9.466;2024-03-23T05:47:22;15.70;;;10.25;;
18973;SDS011;9621;48.690;9.466;2024-03-23T05:49:50;13.77;;;9.73;;
18973;SDS011;9621;48.690;9.466;2024-03-23T05:52:17;21.30;;;11.30;;
18973;SDS011;9621;48.690;9.466;2024-03-23T05:54:46;16.88;;;10.98;;
18973;SDS011;9621;48.690;9.466;2024-03-23T05:57:11;15.73;;;11.00;;
18973;SDS011;9621;48.690;9.466;2024-03-23T05:59:38;16.42;;;11.00;;
18973;SDS011;9621;48.690;9.466;2024-03-23T06:02:05;17.92;;;11.57;;
18973;SDS011;9621;48.690;9.466;2024-03-23T06:04:32;17.50;;;11.57;;
18973;SDS011;9621;48.690;9.466;2024-03-23T06:06:59;18.33;;;11.75;;
18973;SDS011;9621;48.690;9.466;2024-03-23T06:09:26;20.90;;;11.60;;
18973;SDS011;9621;48.690;9.466;2024-03-23T06:11:52;15.63;;;10.80;;
18973;SDS011;9621;48.690;9.466;2024-03-23T06:14:19;16.88;;;10.80;;
18973;SDS011;9621;48.690;9.466;2024-03-23T06:16:45;16.60;;;10.25;;
18973;SDS011;9621;48.690;9.466;2024-03-23T06:19:12;17.65;;;11.93;;
18973;SDS011;9621;48.690;9.466;2024-03-23T06:21:37;20.75;;;12.98;;
18973;SDS011;9621;48.690;9.466;2024-03-23T06:24:11;21.10;;;14.80;;
18973;SDS011;9621;48.690;9.466;2024-03-23T06:26:37;17.10;;;12.18;;
18973;SDS011;9621;48.690;9.466;2024-03-23T06:29:04;16.17;;;10.38;;
18973;SDS011;9621;48.690;9.466;2024-03-23T06:31:34;14.45;;;10.10;;
18973;SDS011;9621;48.690;9.466;2024-03-23T06:34:01;14.23;;;9.57;;
18973;SDS011;9621;48.690;9.466;2024-03-23T06:36:27;14.55;;;9.38;;
18973;SDS011;9621;48.690;9.466;2024-03-23T06:38:55;12.05;;;7.60;;
18973;SDS011;9621;48.690;9.466;2024-03-23T06:41:24;7.07;;;5.53;;
18973;SDS011;9621;48.690;9.466;2024-03-23T06:43:50;6.68;;;4.50;;
18973;SDS011;9621;48.690;9.466;2024-03-23T06:46:16;5.30;;;3.47;;
18973;SDS011;9621;48.690;9.466;2024-03-23T06:48:44;4.35;;;3.10;;
18973;SDS011;9621;48.690;9.466;2024-03-23T06:51:11;3.15;;;2.70;;
18973;SDS011;9621;48.690;9.466;2024-03-23T06:53:37;3.05;;;2.65;;
18973;SDS011;9621;48.690;9.466;2024-03-23T06:56:04;2.35;;;2.15;;
18973;SDS011;9621;48.690;9.466;2024-03-23T06:58:32;2.22;;;1.83;;
18973;SDS011;9621;48.690;9.466;2024-03-23T07:00:59;1.45;;;1.35;;
18973;SDS011;9621;48.690;9.466;2024-03-23T07:03:25;1.45;;;1.23;;
18973;SDS011;9621;48.690;9.466;2024-03-23T07:05:52;1.85;;;1.38;;
18973;SDS011;9621;48.690;9.466;2024-03-23T07:08:18;2.30;;;1.30;;
18973;SDS011;9621;48.690;9.466;2024-03-23T07:10:47;1.30;;;1.00;;
18973;SDS011;9621;48.690;9.466;2024-03-23T07:13:13;1.60;;;1.10;;
18973;SDS011;9621;48.690;9.466;2024-03-23T07:15:41;1.05;;;0.95;;
18973;SDS011;9621;48.690;9.466;2024-03-23T07:18:07;1.10;;;1.00;;
18973;SDS011;9621;48.690;9.466;2024-03-23T07:20:34;0.80;;;0.80;;
18973;SDS011;9621;48.690;9.466;2024-03-23T07:23:01;1.15;;;1.02;;
18973;SDS011;9621;48.690;9.466;2024-03-23T07:25:31;1.23;;;0.98;;
18973;SDS011;9621;48.690;9.466;2024-03-23T07:27:57;1.60;;;0.90;;
18973;SDS011;9621;48.690;9.466;2024-03-23T07:30:24;0.95;;;0.80;;
18973;SDS011;9621;48.690;9.466;2024-03-23T07:32:52;1.98;;;0.82;;
18973;SDS011;9621;48.690;9.466;2024-03-23T07:35:19;1.23;;;0.80;;
18973;SDS011;9621;48.690;9.466;2024-03-23T07:37:44;0.80;;;0.70;;
18973;SDS011;9621;48.690;9.466;2024-03-23T07:40:12;0.80;;;0.77;;
18973;SDS011;9621;48.690;9.466;2024-03-23T07:42:38;1.27;;;0.70;;
18973;SDS011;9621;48.690;9.466;2024-03-23T07:45:05;0.70;;;0.70;;
18973;SDS011;9621;48.690;9.466;2024-03-23T07:47:32;0.60;;;0.60;;
18973;SDS011;9621;48.690;9.466;2024-03-23T07:50:01;1.10;;;0.80;;
18973;SDS011;9621;48.690;9.466;2024-03-23T07:52:27;0.80;;;0.57;;
18973;SDS011;9621;48.690;9.466;2024-03-23T07:54:55;0.98;;;0.70;;
18973;SDS011;9621;48.690;9.466;2024-03-23T07:57:22;0.82;;;0.60;;
18973;SDS011;9621;48.690;9.466;2024-03-23T07:59:47;0.55;;;0.55;;
18973;SDS011;9621;48.690;9.466;2024-03-23T08:02:14;0.57;;;0.57;;
18973;SDS011;9621;48.690;9.466;2024-03-23T08:04:40;0.77;;;0.50;;
18973;SDS011;9621;48.690;9.466;2024-03-23T08:07:09;1.17;;;0.40;;
18973;SDS011;9621;48.690;9.466;2024-03-23T08:09:34;0.50;;;0.50;;
18973;SDS011;9621;48.690;9.466;2024-03-23T08:12:01;0.50;;;0.50;;
18973;SDS011;9621;48.690;9.466;2024-03-23T08:14:27;1.45;;;0.50;;
18973;SDS011;9621;48.690;9.466;2024-03-23T08:16:54;0.70;;;0.50;;
18973;SDS011;9621;48.690;9.466;2024-03-23T08:19:20;1.75;;;0.55;;
18973;SDS011;9621;48.690;9.466;2024-03-23T08:21:47;2.00;;;1.80;;
18973;SDS011;9621;48.690;9.466;2024-03-23T08:24:15;1.15;;;1.05;;
18973;SDS011;9621;48.690;9.466;2024-03-23T08:26:42;1.20;;;1.10;;
18973;SDS011;9621;48.690;9.466;2024-03-23T08:29:08;1.10;;;1.00;;
18973;SDS011;9621;48.690;9.466;2024-03-23T08:31:35;0.82;;;0.80;;
18973;SDS011;9621;48.690;9.466;2024-03-23T08:34:01;1.08;;;0.98;;
18973;SDS011;9621;48.690;9.466;2024-03-23T08:36:28;0.93;;;0.90;;
18973;SDS011;9621;48.690;9.466;2024-03-23T08:38:55;2.45;;;0.80;;
18973;SDS011;9621;48.690;9.466;2024-03-23T08:41:24;0.70;;;0.70;;
18973;SDS011;9621;48.690;9.466;2024-03-23T08:43:50;1.00;;;0.85;;
18973;SDS011;9621;48.690;9.466;2024-03-23T08:46:17;0.90;;;0.75;;
18973;SDS011;9621;48.690;9.466;2024-03-23T08:48:44;0.75;;;0.75;;
18973;SDS011;9621;48.690;9.466;2024-03-23T08:51:14;0.98;;;0.90;;
18973;SDS011;9621;48.690;9.466;2024-03-23T08:53:40;1.15;;;1.02;;
18973;SDS011;9621;48.690;9.466;2024-03-23T08:56:08;1.63;;;0.82;;
18973;SDS011;9621;48.690;9.466;2024-03-23T08:58:36;0.80;;;0.80;;
18973;SDS011;9621;48.690;9.466;2024-03-23T09:01:05;1.38;;;0.80;;
18973;SDS011;9621;48.690;9.466;2024-03-23T09:03:32;1.15;;;0.90;;
18973;SDS011;9621;48.690;9.466;2024-03-23T09:06:00;3.10;;;1.20;;
18973;SDS011;9621;48.690;9.466;2024-03-23T09:08:26;1.90;;;1.27;;
18973;SDS011;9621;48.690;9.466;2024-03-23T09:10:53;2.47;;;1.20;;
18973;SDS011;9621;48.690;9.466;2024-03-23T09:13:19;1.75;;;1.40;;
18973;SDS011;9621;48.690;9.466;2024-03-23T09:15:48;3.30;;;1.77;;
18973;SDS011;9621;48.690;9.466;2024-03-23T09:18:16;3.20;;;1.38;;
18973;SDS011;9621;48.690;9.466;2024-03-23T09:20:43;2.10;;;1.42;;
18973;SDS011;9621;48.690;9.466;2024-03-23T09:23:09;1.52;;;1.20;;
18973;SDS011;9621;48.690;9.466;2024-03-23T09:25:37;1.65;;;1.42;;
18973;SDS011;9621;48.690;9.466;2024-03-23T09:28:09;3.40;;;1.73;;
18973;SDS011;9621;48.690;9.466;2024-03-23T09:30:38;4.32;;;1.77;;
18973;SDS011;9621;48.690;9.466;2024-03-23T09:33:09;5.25;;;2.50;;
18973;SDS011;9621;48.690;9.466;2024-03-23T09:35:36;8.50;;;2.83;;
18973;SDS011;9621;48.690;9.466;2024-03-23T09:38:02;6.25;;;3.08;;
18973;SDS011;9621;48.690;9.466;2024-03-23T09:40:30;4.95;;;2.30;;
18973;SDS011;9621;48.690;9.466;2024-03-23T09:42:56;4.18;;;2.13;;
18973;SDS011;9621;48.690;9.466;2024-03-23T09:45:26;6.05;;;1.98;;
18973;SDS011;9621;48.690;9.466;2024-03-23T09:47:54;8.95;;;2.42;;
18973;SDS011;9621;48.690;9.466;2024-03-23T09:50:23;5.72;;;2.20;;
18973;SDS011;9621;48.690;9.466;2024-03-23T09:52:51;6.05;;;2.45;;
18973;SDS011;9621;48.690;9.466;2024-03-23T09:55:18;7.38;;;2.50;;
18973;SDS011;9621;48.690;9.466;2024-03-23T09:57:44;6.68;;;2.08;;
18973;SDS011;9621;48.690;9.466;2024-03-23T10:00:12;7.97;;;2.42;;
18973;SDS011;9621;48.690;9.466;2024-03-23T10:02:38;3.33;;;2.33;;
18973;SDS011;9621;48.690;9.466;2024-03-23T10:05:08;4.90;;;2.38;;
18973;SDS011;9621;48.690;9.466;2024-03-23T10:07:48;8.07;;;2.58;;
18973;SDS011;9621;48.690;9.466;2024-03-23T10:10:15;8.60;;;3.03;;
18973;SDS011;9621;48.690;9.466;2024-03-23T10:12:43;6.10;;;2.55;;
18973;SDS011;9621;48.690;9.466;2024-03-23T10:15:15;7.50;;;2.40;;
18973;SDS011;9621;48.690;9.466;2024-03-23T10:17:44;7.47;;;2.80;;
18973;SDS011;9621;48.690;9.466;2024-03-23T10:20:11;7.32;;;3.20;;
18973;SDS011;9621;48.690;9.466;2024-03-23T10:22:37;6.47;;;2.97;;
18973;SDS011;9621;48.690;9.466;2024-03-23T10:25:09;8.80;;;2.70;;
18973;SDS011;9621;48.690;9.466;2024-03-23T10:27:37;5.82;;;2.88;;
18973;SDS011;9621;48.690;9.466;2024-03-23T10:30:08;9.98;;;3.20;;
18973;SDS011;9621;48.690;9.466;2024-03-23T10:32:34;9.73;;;3.05;;
18973;SDS011;9621;48.690;9.466;2024-03-23T10:35:14;8.30;;;2.92;;
18973;SDS011;9621;48.690;9.466;2024-03-23T10:37:40;5.97;;;2.90;;
18973;SDS011;9621;48.690;9.466;2024-03-23T10:40:11;7.43;;;2.97;;
18973;SDS011;9621;48.690;9.466;2024-03-23T10:42:38;11.20;;;5.78;;
18973;SDS011;9621;48.690;9.466;2024-03-23T10:45:06;8.23;;;3.55;;
18973;SDS011;9621;48.690;9.466;2024-03-23T10:47:34;8.00;;;3.63;;
18973;SDS011;9621;48.690;9.466;2024-03-23T10:50:01;8.75;;;3.88;;
18973;SDS011;9621;48.690;9.466;2024-03-23T10:52:28;7.30;;;3.40;;
18973;SDS011;9621;48.690;9.466;2024-03-23T10:54:55;8.07;;;3.78;;
18973;SDS011;9621;48.690;9.466;2024-03-23T10:57:26;9.02;;;3.95;;
18973;SDS011;9621;48.690;9.466;2024-03-23T10:59:58;14.75;;;5.00;;
18973;SDS011;9621;48.690;9.466;2024-03-23T11:02:24;12.75;;;5.32;;
18973;SDS011;9621;48.690;9.466;2024-03-23T11:04:54;5.93;;;3.50;;
18973;SDS011;9621;48.690;9.466;2024-03-23T11:07:30;6.07;;;3.30;;
18973;SDS011;9621;48.690;9.466;2024-03-23T11:09:57;6.88;;;3.42;;
18973;SDS011;9621;48.690;9.466;2024-03-23T11:12:28;9.20;;;2.80;;
18973;SDS011;9621;48.690;9.466;2024-03-23T11:15:00;12.63;;;4.13;;
18973;SDS011;9621;48.690;9.466;2024-03-23T11:17:28;6.32;;;3.63;;
18973;SDS011;9621;48.690;9.466;2024-03-23T11:19:56;7.05;;;3.22;;
18973;SDS011;9621;48.690;9.466;2024-03-23T11:22:42;6.35;;;3.45;;
18973;SDS011;9621;48.690;9.466;2024-03-23T11:25:16;8.30;;;3.80;;
18973;SDS011;9621;48.690;9.466;2024-03-23T11:27:44;6.22;;;2.95;;
18973;SDS011;9621;48.690;9.466;2024-03-23T11:30:12;7.50;;;3.08;;
18973;SDS011;9621;48.690;9.466;2024-03-23T11:32:40;4.10;;;2.15;;
18973;SDS011;9621;48.690;9.466;2024-03-23T11:35:07;4.55;;;1.77;;
18973;SDS011;9621;48.690;9.466;2024-03-23T11:37:35;3.17;;;2.05;;
18973;SDS011;9621;48.690;9.466;2024-03-23T11:40:16;1.90;;;1.70;;
18973;SDS011;9621;48.690;9.466;2024-03-23T11:42:44;1.95;;;1.50;;
18973;SDS011;9621;48.690;9.466;2024-03-23T11:45:11;2.53;;;1.75;;
18973;SDS011;9621;48.690;9.466;2024-03-23T11:47:39;2.42;;;1.52;;
18973;SDS011;9621;48.690;9.466;2024-03-23T11:50:06;2.47;;;1.80;;
18973;SDS011;9621;48.690;9.466;2024-03-23T11:52:32;3.38;;;1.80;;
18973;SDS011;9621;48.690;9.466;2024-03-23T11:55:03;2.72;;;2.03;;
18973;SDS011;9621;48.690;9.466;2024-03-23T11:57:29;4.40;;;1.92;;
18973;SDS011;9621;48.690;9.466;2024-03-23T11:59:58;4.22;;;2.05;;
18973;SDS011;9621;48.690;9.466;2024-03-23T12:02:24;2.75;;;1.90;;
18973;SDS011;9621;48.690;9.466;2024-03-23T12:04:51;3.15;;;1.80;;
18973;SDS011;9621;48.690;9.466;2024-03-23T12:07:18;4.50;;;2.70;;
18973;SDS011;9621;48.690;9.466;2024-03-23T12:09:46;4.75;;;2.63;;
18973;SDS011;9621;48.690;9.466;2024-03-23T12:12:13;3.63;;;2.25;;
18973;SDS011;9621;48.690;9.466;2024-03-23T12:14:42;3.72;;;2.05;;
18973;SDS011;9621;48.690;9.466;2024-03-23T12:17:13;4.28;;;2.30;;
18973;SDS011;9621;48.690;9.466;2024-03-23T12:19:41;5.43;;;2.50;;
18973;SDS011;9621;48.690;9.466;2024-03-23T12:22:07;4.65;;;2.22;;
18973;SDS011;9621;48.690;9.466;2024-03-23T12:24:34;3.85;;;2.13;;
18973;SDS011;9621;48.690;9.466;2024-03-23T12:27:01;4.80;;;1.88;;
18973;SDS011;9621;48.690;9.466;2024-03-23T12:29:29;4.78;;;1.92;;
18973;SDS011;9621;48.690;9.466;2024-03-23T12:31:56;5.40;;;1.75;;
18973;SDS011;9621;48.690;9.466;2024-03-23T12:34:27;5.47;;;1.92;;
18973;SDS011;9621;48.690;9.466;2024-03-23T12:36:53;10.55;;;2.05;;
18973;SDS011;9621;48.690;9.466;2024-03-23T12:39:20;7.30;;;2.83;;
18973;SDS011;9621;48.690;9.466;2024-03-23T12:41:46;5.50;;;2.20;;
18973;SDS011;9621;48.690;9.466;2024-03-23T12:44:13;4.95;;;2.13;;
18973;SDS011;9621;48.690;9.466;2024-03-23T12:46:40;6.50;;;1.98;;
18973;SDS011;9621;48.690;9.466;2024-03-23T12:49:07;8.48;;;2.10;;
18973;SDS011;9621;48.690;9.466;2024-03-23T12:51:35;4.85;;;1.52;;
18973;SDS011;9621;48.690;9.466;2024-03-23T12:54:01;4.13;;;1.90;;
18973;SDS011;9621;48.690;9.466;2024-03-23T12:56:28;4.93;;;1.67;;
18973;SDS011;9621;48.690;9.466;2024-03-23T12:58:55;4.72;;;1.90;;
18973;SDS011;9621;48.690;9.466;2024-03-23T13:01:22;5.47;;;1.90;;
18973;SDS011;9621;48.690;9.466;2024-03-23T13:03:49;4.70;;;1.40;;
18973;SDS011;9621;48.690;9.466;2024-03-23T13:06:15;7.03;;;1.98;;
18973;SDS011;9621;48.690;9.466;2024-03-23T13:08:45;6.57;;;2.03;;
18973;SDS011;9621;48.690;9.466;2024-03-23T13:11:11;6.45;;;1.98;;
18973;SDS011;9621;48.690;9.466;2024-03-23T13:13:38;7.45;;;1.90;;
18973;SDS011;9621;48.690;9.466;2024-03-23T13:16:05;5.95;;;2.40;;
18973;SDS011;9621;48.690;9.466;2024-03-23T13:18:32;7.72;;;2.38;;
18973;SDS011;9621;48.690;9.466;2024-03-23T13:20:58;7.22;;;2.65;;
18973;SDS011;9621;48.690;9.466;2024-03-23T13:23:25;8.57;;;3.20;;
18973;SDS011;9621;48.690;9.466;2024-03-23T13:25:53;8.32;;;2.50;;
18973;SDS011;9621;48.690;9.466;2024-03-23T13:28:21;11.50;;;2.97;;
18973;SDS011;9621;48.690;9.466;2024-03-23T13:30:51;9.95;;;2.95;;
18973;SDS011;9621;48.690;9.466;2024-03-23T13:33:18;5.78;;;2.35;;
18973;SDS011;9621;48.690;9.466;2024-03-23T13:35:51;5.20;;;2.40;;
18973;SDS011;9621;48.690;9.466;2024-03-23T13:38:18;8.48;;;2.70;;
18973;SDS011;9621;48.690;9.466;2024-03-23T13:40:50;8.07;;;2.53;;
18973;SDS011;9621;48.690;9.466;2024-03-23T13:43:22;5.22;;;2.10;;
18973;SDS011;9621;48.690;9.466;2024-03-23T13:45:51;5.00;;;2.20;;
18973;SDS011;9621;48.690;9.466;2024-03-23T13:48:20;4.30;;;1.85;;
18973;SDS011;9621;48.690;9.466;2024-03-23T13:50:47;5.25;;;2.17;;
18973;SDS011;9621;48.690;9.466;2024-03-23T13:53:22;5.07;;;1.90;;
18973;SDS011;9621;48.690;9.466;2024-03-23T13:55:49;4.63;;;1.77;;
18973;SDS011;9621;48.690;9.466;2024-03-23T13:58:17;4.28;;;1.60;;
18973;SDS011;9621;48.690;9.466;2024-03-23T14:00:43;3.60;;;1.35;;
18973;SDS011;9621;48.690;9.466;2024-03-23T14:03:10;3.85;;;1.63;;
18973;SDS011;9621;48.690;9.466;2024-03-23T14:05:36;2.80;;;1.45;;
18973;SDS011;9621;48.690;9.466;2024-03-23T14:08:04;5.40;;;1.10;;
18973;SDS011;9621;48.690;9.466;2024-03-23T14:10:30;5.13;;;1.05;;
18973;SDS011;9621;48.690;9.466;2024-03-23T14:12:57;4.20;;;1.20;;
18973;SDS011;9621;48.690;9.466;2024-03-23T14:15:26;2.58;;;1.25;;
18973;SDS011;9621;48.690;9.466;2024-03-23T14:17:53;4.22;;;1.27;;
18973;SDS011;9621;48.690;9.466;2024-03-23T14:20:19;3.25;;;1.08;;
18973;SDS011;9621;48.690;9.466;2024-03-23T14:22:46;2.03;;;1.00;;
18973;SDS011;9621;48.690;9.466;2024-03-23T14:25:12;3.15;;;1.33;;
18973;SDS011;9621;48.690;9.466;2024-03-23T14:27:39;4.68;;;1.52;;
18973;SDS011;9621;48.690;9.466;2024-03-23T14:30:05;4.28;;;1.05;;
18973;SDS011;9621;48.690;9.466;2024-03-23T14:32:35;3.35;;;1.35;;
18973;SDS011;9621;48.690;9.466;2024-03-23T14:35:02;6.05;;;1.90;;
18973;SDS011;9621;48.690;9.466;2024-03-23T14:37:30;3.55;;;1.30;;
18973;SDS011;9621;48.690;9.466;2024-03-23T14:39:56;4.25;;;1.33;;
18973;SDS011;9621;48.690;9.466;2024-03-23T14:42:23;6.28;;;1.38;;
18973;SDS011;9621;48.690;9.466;2024-03-23T14:44:49;4.88;;;1.85;;
18973;SDS011;9621;48.690;9.466;2024-03-23T14:47:16;5.43;;;1.85;;
18973;SDS011;9621;48.690;9.466;2024-03-23T14:49:44;2.38;;;1.40;;
18973;SDS011;9621;48.690;9.466;2024-03-23T14:52:12;3.85;;;1.60;;
18973;SDS011;9621;48.690;9.466;2024-03-23T14:54:38;5.78;;;1.38;;
18973;SDS011;9621;48.690;9.466;2024-03-23T14:57:05;2.83;;;1.13;;
18973;SDS011;9621;48.690;9.466;2024-03-23T14:59:31;4.57;;;1.23;;
18973;SDS011;9621;48.690;9.466;2024-03-23T15:01:58;3.00;;;1.42;;
18973;SDS011;9621;48.690;9.466;2024-03-23T15:04:24;4.45;;;1.27;;
18973;SDS011;9621;48.690;9.466;2024-03-23T15:06:52;5.22;;;1.30;;
18973;SDS011;9621;48.690;9.466;2024-03-23T15:09:18;4.47;;;1.15;;
18973;SDS011;9621;48.690;9.466;2024-03-23T15:11:45;1.67;;;0.93;;
18973;SDS011;9621;48.690;9.466;2024-03-23T15:14:11;3.90;;;1.20;;
18973;SDS011;9621;48.690;9.466;2024-03-23T15:16:38;2.58;;;1.80;;
18973;SDS011;9621;48.690;9.466;2024-03-23T15:19:04;3.72;;;1.77;;
18973;SDS011;9621;48.690;9.466;2024-03-23T15:21:31;2.78;;;1.95;;
18973;SDS011;9621;48.690;9.466;2024-03-23T15:23:59;7.85;;;1.92;;
18973;SDS011;9621;48.690;9.466;2024-03-23T15:26:26;4.55;;;2.30;;
18973;SDS011;9621;48.690;9.466;2024-03-23T15:28:51;12.43;;;1.88;;
18973;SDS011;9621;48.690;9.466;2024-03-23T15:31:35;4.40;;;1.33;;
18973;SDS011;9621;48.690;9.466;2024-03-23T15:34:01;3.83;;;1.45;;
18973;SDS011;9621;48.690;9.466;2024-03-23T15:36:29;4.40;;;1.40;;
18973;SDS011;9621;48.690;9.466;2024-03-23T15:38:55;1.80;;;1.20;;
18973;SDS011;9621;48.690;9.466;2024-03-23T15:41:24;3.50;;;1.10;;
18973;SDS011;9621;48.690;9.466;2024-03-23T15:43:50;2.95;;;1.30;;
18973;SDS011;9621;48.690;9.466;2024-03-23T15:46:17;2.78;;;1.20;;
18973;SDS011;9621;48.690;9.466;2024-03-23T15:48:44;3.42;;;1.20;;